createdAt,value
2019-05-14T00:01:37.367Z,1.77
2019-05-14T00:04:03.259Z,1.10
2019-05-14T00:06:31.107Z,1.30
2019-05-14T00:08:56.879Z,1.47
2019-05-14T00:11:22.730Z,1.40
2019-05-14T00:13:48.581Z,1.90
2019-05-14T00:16:14.432Z,1.70
2019-05-14T00:18:41.986Z,1.23
2019-05-14T00:21:08.062Z,1.63
2019-05-14T00:23:33.923Z,1.70
2019-05-14T00:26:01.695Z,1.60
2019-05-14T00:28:27.545Z,1.80
2019-05-14T00:30:53.398Z,2.03
2019-05-14T00:33:19.278Z,1.70
2019-05-14T00:35:45.137Z,2.37
2019-05-14T00:38:11.933Z,2.00
2019-05-14T00:40:37.898Z,2.10
2019-05-14T00:43:03.772Z,2.33
2019-05-14T00:45:31.325Z,1.90
2019-05-14T00:47:58.301Z,1.97
2019-05-14T00:50:24.172Z,1.93
2019-05-14T00:52:51.678Z,2.70
2019-05-14T00:55:17.685Z,1.93
2019-05-14T00:57:43.541Z,2.10
2019-05-14T01:00:11.591Z,2.03
2019-05-14T01:02:37.370Z,2.10
2019-05-14T01:05:05.629Z,1.80
2019-05-14T01:07:31.704Z,2.23
2019-05-14T01:09:57.577Z,2.13
2019-05-14T01:12:23.449Z,2.23
2019-05-14T01:14:51.496Z,2.30
2019-05-14T01:17:17.057Z,2.40
2019-05-14T01:19:42.918Z,2.10
2019-05-14T01:22:08.776Z,3.03
2019-05-14T01:24:34.635Z,2.33
2019-05-14T01:27:01.627Z,2.33
2019-05-14T01:29:27.756Z,2.50
2019-05-14T01:31:53.625Z,2.53
2019-05-14T01:34:21.464Z,2.63
2019-05-14T01:36:47.240Z,2.57
2019-05-14T01:39:13.112Z,2.53
2019-05-14T01:41:38.962Z,2.60
2019-05-14T01:44:04.814Z,2.67
2019-05-14T01:46:31.645Z,3.00
2019-05-14T01:48:57.731Z,2.97
2019-05-14T01:51:23.774Z,2.53
2019-05-14T01:53:51.938Z,3.23
2019-05-14T01:56:17.390Z,2.60
2019-05-14T01:58:43.292Z,3.10
2019-05-14T02:01:09.158Z,2.73
2019-05-14T02:03:35.017Z,2.33
2019-05-14T02:06:01.509Z,3.00
2019-05-14T02:08:27.739Z,3.13
2019-05-14T02:10:53.607Z,3.10
2019-05-14T02:13:21.418Z,3.17
2019-05-14T02:15:47.235Z,3.10
2019-05-14T02:18:13.303Z,3.37
2019-05-14T02:20:41.441Z,3.20
2019-05-14T02:23:07.427Z,2.97
2019-05-14T02:25:33.292Z,2.97
2019-05-14T02:28:01.176Z,3.20
2019-05-14T02:30:41.359Z,2.80
2019-05-14T02:32:54.694Z,3.67
2019-05-14T02:35:20.634Z,3.53
2019-05-14T02:37:50.196Z,3.60
2019-05-14T02:40:14.681Z,3.20
2019-05-14T02:42:40.633Z,2.90
2019-05-14T02:45:08.922Z,3.00
2019-05-14T02:47:34.921Z,3.00
2019-05-14T02:50:00.789Z,3.30
2019-05-14T02:52:29.179Z,3.60
2019-05-14T02:54:54.445Z,3.43
2019-05-14T02:57:20.364Z,3.73
2019-05-14T02:59:46.246Z,3.70
2019-05-14T03:02:12.106Z,4.37
2019-05-14T03:04:39.473Z,3.50
2019-05-14T03:07:05.818Z,3.20
2019-05-14T03:09:31.694Z,3.73
2019-05-14T03:11:59.508Z,3.83
2019-05-14T03:14:25.317Z,4.13
2019-05-14T03:16:51.179Z,3.83
2019-05-14T03:19:19.603Z,3.67
2019-05-14T03:21:44.954Z,3.60
2019-05-14T03:24:10.943Z,4.10
2019-05-14T03:26:39.854Z,4.53
2019-05-14T03:29:04.878Z,4.37
2019-05-14T03:31:32.966Z,3.80
2019-05-14T03:34:03.108Z,4.10
2019-05-14T03:36:33.481Z,3.90
2019-05-14T03:38:54.296Z,4.13
2019-05-14T03:41:20.680Z,3.90
2019-05-14T03:43:49.147Z,4.07
2019-05-14T03:46:14.401Z,4.30
2019-05-14T03:48:40.561Z,4.77
2019-05-14T03:51:09.004Z,5.00
2019-05-14T03:53:52.233Z,5.10
2019-05-14T03:56:02.790Z,3.80
2019-05-14T03:58:29.969Z,5.07
2019-05-14T04:01:00.683Z,4.43
2019-05-14T04:03:29.585Z,4.20
2019-05-14T04:05:59.405Z,4.20
2019-05-14T04:08:29.061Z,4.47
2019-05-14T04:10:54.551Z,4.20
2019-05-14T04:13:22.287Z,5.20
2019-05-14T04:15:50.253Z,4.23
2019-05-14T04:18:18.510Z,4.33
2019-05-14T04:20:45.582Z,4.60
2019-05-14T04:23:14.249Z,4.10
2019-05-14T04:25:40.123Z,4.27
2019-05-14T04:28:12.526Z,4.30
2019-05-14T04:30:40.300Z,5.17
2019-05-14T04:33:10.377Z,4.70
2019-05-14T04:35:34.914Z,4.43
2019-05-14T04:38:00.808Z,5.37
2019-05-14T04:40:29.623Z,6.10
2019-05-14T04:42:54.462Z,5.23
2019-05-14T04:45:20.302Z,4.40
2019-05-14T04:47:49.533Z,4.97
2019-05-14T04:50:14.239Z,5.13
2019-05-14T04:52:40.743Z,4.93
2019-05-14T04:55:09.630Z,4.53
2019-05-14T04:57:34.665Z,4.83
2019-05-14T05:00:00.536Z,5.23
2019-05-14T05:02:29.830Z,5.00
2019-05-14T05:04:54.151Z,4.60
2019-05-14T05:07:20.007Z,4.33
2019-05-14T05:09:45.873Z,4.43
2019-05-14T05:12:11.760Z,4.50
2019-05-14T05:14:38.846Z,4.70
2019-05-14T05:17:05.222Z,5.63
2019-05-14T05:19:31.065Z,5.13
2019-05-14T05:21:58.718Z,4.30
2019-05-14T05:24:24.712Z,4.73
2019-05-14T05:26:50.570Z,5.33
2019-05-14T05:29:18.642Z,4.37
2019-05-14T05:31:44.280Z,4.47
2019-05-14T05:34:10.145Z,4.67
2019-05-14T05:36:38.029Z,5.77
2019-05-14T05:39:05.392Z,6.83
2019-05-14T05:41:31.261Z,5.13
2019-05-14T05:43:58.864Z,4.83
2019-05-14T05:46:24.943Z,4.93
2019-05-14T05:48:50.821Z,4.93
2019-05-14T05:51:18.709Z,5.67
2019-05-14T05:53:44.499Z,4.53
2019-05-14T05:56:10.370Z,4.80
2019-05-14T05:58:36.243Z,4.50
2019-05-14T06:01:02.107Z,4.80
2019-05-14T06:03:30.034Z,4.67
2019-05-14T06:05:59.155Z,4.13
2019-05-14T06:08:24.500Z,5.40
2019-05-14T06:10:50.364Z,4.43
2019-05-14T06:13:18.273Z,4.67
2019-05-14T06:15:48.508Z,4.87
2019-05-14T06:18:18.067Z,4.60
2019-05-14T06:20:39.778Z,4.17
2019-05-14T06:23:08.294Z,4.53
2019-05-14T06:25:33.924Z,5.03
2019-05-14T06:27:59.780Z,5.27
2019-05-14T06:30:39.596Z,4.47
2019-05-14T06:33:05.502Z,4.37
2019-05-14T06:35:31.330Z,5.30
2019-05-14T06:37:58.242Z,4.77
2019-05-14T06:40:24.468Z,5.33
2019-05-14T06:42:50.393Z,7.40
2019-05-14T06:45:18.611Z,4.70
2019-05-14T06:47:44.001Z,4.37
2019-05-14T06:50:09.966Z,4.20
2019-05-14T06:52:35.825Z,4.20
2019-05-14T06:55:03.890Z,3.67
2019-05-14T06:57:29.780Z,4.07
2019-05-14T06:59:55.664Z,4.57
2019-05-14T07:02:21.717Z,4.00
2019-05-14T07:04:48.424Z,3.80
2019-05-14T07:07:14.589Z,4.20
2019-05-14T07:09:40.447Z,3.60
2019-05-14T07:12:08.873Z,3.93
2019-05-14T07:14:34.072Z,4.10
2019-05-14T07:16:59.937Z,3.53
2019-05-14T07:19:25.818Z,3.33
2019-05-14T07:21:51.688Z,3.57
2019-05-14T07:24:19.609Z,3.47
2019-05-14T07:26:45.288Z,3.30
2019-05-14T07:29:11.738Z,3.57
2019-05-14T07:31:38.437Z,2.90
2019-05-14T07:34:04.517Z,3.00
2019-05-14T07:36:30.398Z,2.83
2019-05-14T07:38:57.582Z,2.80
2019-05-14T07:41:24.009Z,2.87
2019-05-14T07:43:49.882Z,3.10
2019-05-14T07:46:15.739Z,3.07
2019-05-14T07:48:41.600Z,2.87
2019-05-14T07:51:08.847Z,3.43
2019-05-14T07:53:38.919Z,3.10
2019-05-14T07:56:02.826Z,2.93
2019-05-14T07:58:28.676Z,2.70
2019-05-14T08:00:54.565Z,2.90
2019-05-14T08:03:20.429Z,2.87
2019-05-14T08:05:48.264Z,3.30
2019-05-14T08:08:14.066Z,3.63
2019-05-14T08:10:39.915Z,3.07
2019-05-14T08:13:08.337Z,3.30
2019-05-14T08:15:33.735Z,2.93
2019-05-14T08:17:59.598Z,2.50
2019-05-14T08:20:25.466Z,3.40
2019-05-14T08:22:51.351Z,2.70
2019-05-14T08:25:19.016Z,2.50
2019-05-14T08:27:44.985Z,2.10
2019-05-14T08:30:11.352Z,1.93
2019-05-14T08:32:39.087Z,2.30
2019-05-14T08:35:05.169Z,2.00
2019-05-14T08:37:31.020Z,2.20
2019-05-14T08:39:58.824Z,1.80
2019-05-14T08:42:24.653Z,1.80
2019-05-14T08:44:51.424Z,1.50
2019-05-14T08:47:18.385Z,1.80
2019-05-14T08:49:46.648Z,2.13
2019-05-14T08:52:15.882Z,1.60
2019-05-14T08:54:40.161Z,1.20
2019-05-14T08:57:06.196Z,1.37
2019-05-14T08:59:32.882Z,1.37
2019-05-14T09:02:06.162Z,1.73
2019-05-14T09:04:29.807Z,1.20
2019-05-14T09:06:54.307Z,1.40
2019-05-14T09:09:22.121Z,1.40
2019-05-14T09:11:50.437Z,1.70
2019-05-14T09:14:15.788Z,2.10
2019-05-14T09:16:46.726Z,1.37
2019-05-14T09:19:09.406Z,1.47
2019-05-14T09:21:35.274Z,1.37
2019-05-14T09:24:01.140Z,1.47
2019-05-14T09:26:28.519Z,2.43
2019-05-14T09:28:54.466Z,1.73
2019-05-14T09:31:20.361Z,1.83
2019-05-14T09:33:46.190Z,1.20
2019-05-14T09:36:19.608Z,1.40
2019-05-14T09:38:42.262Z,1.50
2019-05-14T09:41:14.376Z,1.60
2019-05-14T09:43:35.707Z,1.73
2019-05-14T09:46:01.575Z,1.80
2019-05-14T09:48:28.603Z,1.67
2019-05-14T09:50:54.660Z,1.50
2019-05-14T09:53:20.550Z,1.90
2019-05-14T09:55:46.414Z,1.73
2019-05-14T09:58:12.279Z,1.40
2019-05-14T10:00:38.997Z,1.87
2019-05-14T10:03:05.126Z,1.70
2019-05-14T10:05:30.981Z,1.63
2019-05-14T10:07:59.271Z,1.90
2019-05-14T10:10:24.649Z,1.70
2019-05-14T10:12:56.310Z,1.77
2019-05-14T10:15:18.450Z,1.87
2019-05-14T10:17:44.332Z,1.90
2019-05-14T10:20:10.306Z,1.77
2019-05-14T10:22:36.388Z,1.57
2019-05-14T10:25:03.347Z,1.73
2019-05-14T10:27:29.198Z,2.53
2019-05-14T10:29:55.065Z,1.83
2019-05-14T10:32:20.916Z,2.00
2019-05-14T10:34:48.537Z,1.43
2019-05-14T10:37:14.556Z,1.93
2019-05-14T10:39:40.436Z,1.60
2019-05-14T10:42:08.666Z,1.57
2019-05-14T10:44:34.072Z,2.03
2019-05-14T10:47:00.201Z,1.60
2019-05-14T10:49:26.051Z,1.90
2019-05-14T10:51:51.933Z,1.73
2019-05-14T10:54:24.969Z,1.47
2019-05-14T10:56:45.559Z,1.87
2019-05-14T10:59:11.417Z,1.90
2019-05-14T11:01:39.086Z,1.90
2019-05-14T11:04:05.060Z,2.10
2019-05-14T11:06:30.934Z,2.10
2019-05-14T11:08:56.798Z,1.90
2019-05-14T11:11:22.770Z,2.43
2019-05-14T11:13:48.642Z,1.80
2019-05-14T11:16:14.510Z,1.83
2019-05-14T11:18:40.523Z,2.17
2019-05-14T11:21:19.913Z,2.10
2019-05-14T11:23:34.264Z,2.17
2019-05-14T11:26:00.105Z,2.80
2019-05-14T11:28:28.343Z,2.57
2019-05-14T11:30:53.769Z,2.27
2019-05-14T11:33:19.729Z,1.97
2019-05-14T11:35:45.564Z,2.03
2019-05-14T11:38:27.946Z,2.43
2019-05-14T11:40:39.202Z,2.30
2019-05-14T11:43:05.077Z,2.50
2019-05-14T11:45:30.953Z,2.10
2019-05-14T11:47:58.439Z,2.40
2019-05-14T11:50:24.381Z,2.50
2019-05-14T11:52:50.253Z,2.23
2019-05-14T11:55:18.606Z,2.17
2019-05-14T11:57:43.982Z,2.50
2019-05-14T12:00:10.462Z,2.20
2019-05-14T12:02:38.436Z,2.50
2019-05-14T12:05:05.536Z,2.57
2019-05-14T12:07:31.393Z,3.07
2019-05-14T12:09:57.253Z,2.53
2019-05-14T12:12:23.106Z,2.47
2019-05-14T12:14:48.997Z,2.80
2019-05-14T12:17:14.858Z,2.43
2019-05-14T12:19:43.540Z,2.13
2019-05-14T12:22:11.929Z,2.47
2019-05-14T12:24:38.555Z,2.30
2019-05-14T12:27:04.027Z,2.93
2019-05-14T12:29:29.903Z,2.63
2019-05-14T12:31:55.763Z,3.07
2019-05-14T12:34:21.671Z,2.43
2019-05-14T12:36:49.317Z,2.77
2019-05-14T12:39:15.292Z,3.10
2019-05-14T12:41:41.146Z,3.20
2019-05-14T12:44:09.281Z,3.50
2019-05-14T12:46:34.799Z,2.50
2019-05-14T12:49:01.249Z,2.80
2019-05-14T12:51:27.235Z,2.53
2019-05-14T12:53:53.100Z,2.60
2019-05-14T12:56:19.129Z,2.60
2019-05-14T12:58:46.763Z,3.30
2019-05-14T13:01:13.794Z,3.37
2019-05-14T13:08:32.059Z,3.52
2019-05-14T13:10:58.749Z,2.97
2019-05-14T13:13:24.705Z,3.23
2019-05-14T13:15:50.573Z,2.50
2019-05-14T13:18:19.169Z,3.03
2019-05-14T13:20:44.240Z,3.10
2019-05-14T13:23:10.232Z,3.20
2019-05-14T13:25:39.020Z,3.37
2019-05-14T13:28:04.614Z,3.33
2019-05-14T13:30:30.603Z,3.50
2019-05-14T13:32:59.058Z,3.35
2019-05-14T13:35:24.238Z,3.23
2019-05-14T13:37:50.095Z,3.43
2019-05-14T13:40:16.288Z,3.50
2019-05-14T13:42:44.603Z,3.47
2019-05-14T13:45:10.612Z,3.13
2019-05-14T13:47:38.714Z,3.40
2019-05-14T13:50:08.290Z,2.87
2019-05-14T13:52:33.907Z,3.50
2019-05-14T13:55:00.058Z,2.60
2019-05-14T13:57:28.542Z,3.13
2019-05-14T13:59:53.759Z,3.07
2019-05-14T14:02:19.615Z,3.83
2019-05-14T14:04:45.485Z,3.50
2019-05-14T14:07:11.441Z,3.10
2019-05-14T14:09:39.576Z,3.40
2019-05-14T14:12:05.052Z,3.20
2019-05-14T14:14:30.924Z,3.40
2019-05-14T14:16:58.250Z,3.30
2019-05-14T14:19:24.257Z,3.50
2019-05-14T14:21:50.123Z,3.00
2019-05-14T14:24:15.989Z,2.97
2019-05-14T14:26:41.952Z,2.85
2019-05-14T14:29:09.240Z,2.80
2019-05-14T14:31:35.371Z,2.87
2019-05-14T14:34:01.252Z,3.00
2019-05-14T14:36:29.962Z,3.30
2019-05-14T14:38:54.877Z,3.13
2019-05-14T14:41:20.729Z,3.23
2019-05-14T14:43:52.903Z,3.70
2019-05-14T14:46:14.610Z,3.10
2019-05-14T14:48:40.594Z,2.73
2019-05-14T14:51:08.491Z,2.52
2019-05-14T14:53:51.307Z,2.33
2019-05-14T14:56:02.029Z,2.73
2019-05-14T14:58:28.640Z,2.93
2019-05-14T15:00:54.631Z,3.23
2019-05-14T15:03:21.182Z,2.80
2019-05-14T15:05:49.904Z,3.53
2019-05-14T15:08:15.341Z,2.80
2019-05-14T15:10:41.204Z,2.80
2019-05-14T15:13:09.325Z,2.50
2019-05-14T15:15:34.845Z,3.10
2019-05-14T15:18:00.705Z,2.73
2019-05-14T15:20:29.002Z,2.70
2019-05-14T15:22:54.351Z,2.40
2019-05-14T15:25:20.204Z,2.40
2019-05-14T15:27:46.067Z,17.20
2019-05-14T15:30:12.158Z,2.80
2019-05-14T15:32:38.025Z,2.13
2019-05-14T15:35:10.753Z,2.57
2019-05-14T15:37:34.706Z,2.80
2019-05-14T15:40:03.786Z,2.00
2019-05-14T15:42:28.535Z,2.40
2019-05-14T15:44:56.124Z,2.20
2019-05-14T15:47:22.239Z,2.00
2019-05-14T15:49:48.901Z,2.10
2019-05-14T15:52:14.965Z,2.10
2019-05-14T15:54:46.776Z,2.27
2019-05-14T15:57:09.139Z,2.13
2019-05-14T15:59:35.060Z,2.47
2019-05-14T16:02:00.940Z,2.43
2019-05-14T16:04:28.700Z,2.23
2019-05-14T16:06:54.792Z,2.00
2019-05-14T16:09:20.688Z,2.10
2019-05-14T16:11:48.309Z,1.45
2019-05-14T16:14:14.330Z,2.08
2019-05-14T16:16:40.197Z,2.53
2019-05-14T16:19:08.091Z,2.37
2019-05-14T16:21:33.908Z,2.00
2019-05-14T16:23:59.767Z,2.60
2019-05-14T16:26:25.724Z,1.80
2019-05-14T16:28:51.577Z,1.75
2019-05-14T16:31:19.425Z,2.50
2019-05-14T16:33:45.286Z,2.52
2019-05-14T16:36:11.174Z,1.87
2019-05-14T16:38:39.509Z,2.30
2019-05-14T16:41:05.012Z,2.20
2019-05-14T16:43:32.431Z,2.00
2019-05-14T16:45:59.861Z,3.52
2019-05-14T16:48:25.826Z,1.90
2019-05-14T16:50:51.684Z,2.30
2019-05-14T16:53:19.532Z,1.93
2019-05-14T16:55:45.531Z,2.85
2019-05-14T16:58:11.509Z,1.83
2019-05-14T17:00:37.588Z,2.02
2019-05-14T17:03:03.440Z,2.27
2019-05-14T17:05:30.206Z,2.37
2019-05-14T17:07:58.543Z,2.30
2019-05-14T17:10:24.040Z,2.33
2019-05-14T17:12:56.852Z,1.70
2019-05-14T17:15:18.184Z,2.30
2019-05-14T17:17:44.037Z,2.60
2019-05-14T17:20:09.888Z,2.37
2019-05-14T17:22:35.740Z,2.30
2019-05-14T17:25:01.642Z,2.30
2019-05-14T17:27:28.522Z,2.12
2019-05-14T17:29:54.652Z,2.70
2019-05-14T17:32:20.501Z,2.63
2019-05-14T17:34:48.906Z,2.65
2019-05-14T17:37:14.243Z,2.05
2019-05-14T17:39:40.105Z,2.80
2019-05-14T17:42:11.352Z,2.30
2019-05-14T17:44:33.760Z,1.97
2019-05-14T17:46:59.626Z,2.77
2019-05-14T17:49:25.500Z,2.97
2019-05-14T17:51:51.350Z,2.10
2019-05-14T17:54:18.484Z,2.50
2019-05-14T17:56:44.563Z,2.37
2019-05-14T17:59:10.436Z,2.40
2019-05-14T18:01:36.337Z,2.23
2019-05-14T18:04:02.412Z,2.23
2019-05-14T18:06:28.698Z,2.50
2019-05-14T18:08:54.652Z,2.40
2019-05-14T18:11:20.549Z,2.27
2019-05-14T18:13:48.428Z,2.40
2019-05-14T18:16:14.378Z,2.23
2019-05-14T18:18:40.242Z,2.10
2019-05-14T18:21:06.074Z,2.33
2019-05-14T18:23:31.993Z,2.13
2019-05-14T18:26:04.957Z,2.40
2019-05-14T18:28:25.602Z,2.33
2019-05-14T18:30:51.488Z,2.60
2019-05-14T18:33:18.766Z,2.10
2019-05-14T18:35:47.451Z,2.17
2019-05-14T18:38:12.539Z,2.27
2019-05-14T18:40:39.753Z,2.08
2019-05-14T18:43:08.691Z,1.60
2019-05-14T18:45:34.576Z,2.20
2019-05-14T18:48:00.452Z,2.13
2019-05-14T18:50:28.749Z,2.87
2019-05-14T18:52:54.639Z,3.73
2019-05-14T18:55:20.498Z,2.60
2019-05-14T18:57:48.676Z,2.57
2019-05-14T19:00:15.320Z,2.80
2019-05-14T19:02:44.935Z,2.23
2019-05-14T19:05:11.612Z,2.40
2019-05-14T19:07:39.497Z,3.00
2019-05-14T19:10:06.114Z,3.10
2019-05-14T19:12:31.993Z,2.57
2019-05-14T19:14:58.976Z,2.73
2019-05-14T19:17:25.129Z,2.70
2019-05-14T19:19:51.007Z,2.60
2019-05-14T19:22:16.866Z,2.07
2019-05-14T19:24:42.709Z,2.20
2019-05-14T19:27:09.164Z,1.93
2019-05-14T19:29:35.143Z,2.30
2019-05-14T19:32:00.997Z,2.93
2019-05-14T19:34:28.707Z,2.20
2019-05-14T19:36:54.644Z,2.30
2019-05-14T19:39:20.507Z,3.07
2019-05-14T19:41:48.274Z,2.30
2019-05-14T19:44:14.121Z,2.00
2019-05-14T19:46:40.021Z,2.53
2019-05-14T19:49:08.010Z,2.30
2019-05-14T19:51:33.691Z,3.03
2019-05-14T19:53:59.651Z,2.50
2019-05-14T19:56:25.526Z,2.60
2019-05-14T19:58:51.400Z,2.17
2019-05-14T20:01:19.354Z,2.40
2019-05-14T20:03:45.053Z,2.67
2019-05-14T20:06:10.919Z,2.90
2019-05-14T20:08:38.812Z,2.90
2019-05-14T20:11:04.669Z,3.07
2019-05-14T20:13:30.875Z,3.23
2019-05-14T20:15:58.914Z,2.90
2019-05-14T20:18:24.621Z,3.00
2019-05-14T20:20:50.653Z,2.90
2019-05-14T20:23:18.563Z,3.03
2019-05-14T20:25:44.252Z,3.10
2019-05-14T20:28:10.125Z,2.57
2019-05-14T20:30:38.587Z,3.17
2019-05-14T20:33:03.760Z,3.20
2019-05-14T20:35:34.668Z,3.10
2019-05-14T20:37:58.623Z,3.23
2019-05-14T20:40:24.568Z,3.30
2019-05-14T20:42:50.447Z,3.00
2019-05-14T20:45:18.984Z,3.20
2019-05-14T20:47:44.365Z,3.60
2019-05-14T20:50:10.730Z,3.47
2019-05-14T20:52:36.628Z,2.97
2019-05-14T20:55:04.973Z,3.67
2019-05-14T20:57:33.485Z,3.50
2019-05-14T20:59:58.924Z,3.17
2019-05-14T21:02:24.817Z,2.97
2019-05-14T21:04:54.791Z,3.30
2019-05-14T21:07:18.553Z,3.50
2019-05-14T21:09:44.460Z,3.40
2019-05-14T21:12:10.369Z,3.53
2019-05-14T21:14:41.048Z,2.97
2019-05-14T21:17:04.163Z,3.37
2019-05-14T21:19:30.073Z,3.53
2019-05-14T21:21:58.190Z,3.57
2019-05-14T21:24:23.877Z,3.33
2019-05-14T21:26:52.666Z,3.43
2019-05-14T21:29:18.592Z,3.20
2019-05-14T21:31:44.529Z,3.17
2019-05-14T21:34:10.451Z,3.87
2019-05-14T21:36:36.447Z,3.83
2019-05-14T21:39:04.845Z,3.83
2019-05-14T21:41:30.763Z,3.73
2019-05-14T21:43:58.377Z,4.17
2019-05-14T21:46:24.547Z,3.90
2019-05-14T21:48:50.460Z,3.83
2019-05-14T21:51:18.020Z,3.90
2019-05-14T21:53:44.689Z,3.57
2019-05-14T21:56:10.611Z,3.93
2019-05-14T21:58:38.604Z,3.20
2019-05-14T22:01:05.239Z,3.80
2019-05-14T22:03:31.140Z,3.63
2019-05-14T22:05:59.361Z,3.33
2019-05-14T22:08:25.136Z,3.27
2019-05-14T22:10:51.046Z,4.37
2019-05-14T22:13:18.164Z,3.07
2019-05-14T22:15:44.192Z,3.77
2019-05-14T22:18:17.247Z,3.40
2019-05-14T22:20:38.712Z,3.63
2019-05-14T22:23:04.789Z,3.60
2019-05-14T22:25:30.699Z,3.63
2019-05-14T22:28:09.000Z,3.30
2019-05-14T22:30:24.470Z,3.10
2019-05-14T22:32:50.361Z,3.27
2019-05-14T22:35:18.546Z,3.50
2019-05-14T22:37:44.088Z,3.50
2019-05-14T22:40:10.429Z,3.37
2019-05-14T22:42:36.325Z,3.57
2019-05-14T22:45:04.658Z,3.37
2019-05-14T22:47:30.562Z,3.53
2019-05-14T22:49:59.159Z,3.40
2019-05-14T22:52:24.299Z,4.03
2019-05-14T22:54:50.207Z,3.70
2019-05-14T22:57:16.138Z,3.80
2019-05-14T22:59:42.031Z,3.70
2019-05-14T23:02:11.117Z,4.03
2019-05-14T23:04:35.740Z,3.50
2019-05-14T23:07:01.650Z,3.87
2019-05-14T23:09:27.555Z,4.20
2019-05-14T23:11:53.494Z,3.83
2019-05-14T23:14:19.423Z,3.73
2019-05-14T23:16:45.341Z,3.93
2019-05-14T23:19:11.239Z,3.57
2019-05-14T23:21:39.086Z,3.37
2019-05-14T23:24:05.001Z,3.40
2019-05-14T23:26:30.918Z,3.50
2019-05-14T23:28:58.773Z,3.53
2019-05-14T23:31:24.909Z,3.47
2019-05-14T23:33:50.784Z,3.40
2019-05-14T23:36:18.335Z,3.43
2019-05-14T23:38:44.597Z,3.40
2019-05-14T23:41:10.510Z,3.40
2019-05-14T23:43:38.832Z,3.90
2019-05-14T23:46:04.210Z,4.10
2019-05-14T23:48:30.147Z,3.60
2019-05-14T23:50:58.346Z,3.13
2019-05-14T23:53:23.955Z,3.67
2019-05-14T23:55:49.872Z,3.40
2019-05-14T23:58:15.777Z,4.13
